SwedenFixed distance
Kullamannen Sprint Ultra 100 km
1–2 Nov2024
Distance
103km
Finishers
420354 men66 women
Winning time
8:12:07h
Median pace
6.85km/h
Pace distribution
420 finishers · 4.07–12.56 km/h · mean 7.10
Every finisher ran the same 103 km course, so these paces are directly comparable.
Histogram of finisher pace. 420 finishers ranged from 4.07 to 12.56 kilometres per hour, with a mean of 7.10 and a median of 6.85. The busiest band is 6.0 to 6.5 kilometres per hour, with 74 finishers.
Results
Ranks 101–150 of 420
| Rank | Runner | Time | Pace | Cat. | Placing |
|---|---|---|---|---|---|
| 101 | Bjäre Runners | 12:48:03h | 8.05 | M35 | 90th M · 18th M35 |
| 102 | SKI IL Friidrett | 12:48:34h | 8.04 | M35 | 91st M · 19th M35 |
| 103 | Hurt | 12:49:36h | 8.03 | M45 | 92nd M · 14th M45 |
| 104 | 12:50:49h | 8.02 | M35 | 93rd M · 20th M35 | |
| 105 | Lonesome Ultrarunners | 12:51:01h | 8.02 | M50 | 94th M · 10th M50 |
| 106 | Run Happy Run Club | 12:52:06h | 8.00 | M23 | 95th M · 30th M23 |
| 107 | Yogging Club | 12:53:16h | 7.99 | M35 | 96th M · 21st M35 |
| 108 | Team Fischer | 12:54:23h | 7.98 | M35 | 97th M · 22nd M35 |
| 109 | Team Kroppslabbet | 12:56:10h | 7.96 | M50 | 98th M · 11th M50 |
| 110 | Mexico 86 | 12:57:05h | 7.95 | M35 | 99th M · 23rd M35 |
| 111 | 13:03:59h | 7.88 | M23 | 100th M · 31st M23 | |
| 112 | 13:04:14h | 7.88 | M35 | 101st M · 24th M35 | |
| 113 | Atlas Running Club | 13:04:20h | 7.88 | M23 | 102nd M · 32nd M23 |
| 114 | Origami Runners | 13:05:27h | 7.87 | M35 | 103rd M · 25th M35 |
| 115 | 13:06:56h | 7.85 | M40 | 104th M · 17th M40 | |
| 115 | 13:06:56h | 7.85 | M40 | 104th M · 17th M40 | |
| 117 | 13:07:27h | 7.85 | M45 | 106th M · 15th M45 | |
| 118 | 13:08:00h | 7.84 | M40 | 107th M · 19th M40 | |
| 119 | 13:09:02h | 7.83 | M23 | 108th M · 33rd M23 | |
| 120 | 13:10:33h | 7.82 | M23 | 109th M · 34th M23 | |
| 121 | 13:11:59h | 7.80 | W23 | 12th F · 5th W23 | |
| 122 | Tidaholm | 13:12:33h | 7.80 | W35 | 13th F · 5th W35 |
| 123 | Trailrunning Sweden Li... | 13:13:05h | 7.79 | M45 | 110th M · 16th M45 |
| 124 | The Ultra Tribe | 13:17:19h | 7.75 | M40 | 111th M · 20th M40 |
| 125 | 13:18:26h | 7.74 | M35 | 112th M · 26th M35 | |
| 126 | 13:19:48h | 7.73 | M23 | 113th M · 35th M23 | |
| 127 | 13:21:44h | 7.71 | M23 | 114th M · 36th M23 | |
| 128 | SKI IL Friidrett | 13:23:40h | 7.69 | M40 | 115th M · 21st M40 |
| 129 | LA Familia LON | 13:25:59h | 7.67 | M45 | 116th M · 17th M45 |
| 130 | 13:27:15h | 7.66 | M35 | 117th M · 27th M35 | |
| 131 | 13:28:43h | 7.64 | M23 | 118th M · 37th M23 | |
| 132 | 13:29:31h | 7.63 | M23 | 119th M · 38th M23 | |
| 133 | 13:29:57h | 7.63 | M45 | 120th M · 18th M45 | |
| 134 | LE Run | 13:32:34h | 7.61 | M35 | 121st M · 28th M35 |
| 135 | 13:34:39h | 7.59 | M40 | 122nd M · 22nd M40 | |
| 136 | Levallois SC | 13:35:10h | 7.58 | M35 | 123rd M · 29th M35 |
| 136 | 13:35:10h | 7.58 | M35 | 123rd M · 29th M35 | |
| 138 | 13:35:54h | 7.57 | M45 | 125th M · 19th M45 | |
| 139 | 13:40:49h | 7.53 | M23 | 126th M · 39th M23 | |
| 140 | 13:41:55h | 7.52 | M35 | 127th M · 31st M35 | |
| 141 | 13:42:04h | 7.52 | M23 | 128th M · 40th M23 | |
| 142 | 13:45:44h | 7.48 | M23 | 129th M · 41st M23 | |
| 143 | 13:46:37h | 7.48 | M23 | 130th M · 42nd M23 | |
| 144 | 13:47:07h | 7.47 | M35 | 131st M · 32nd M35 | |
| 145 | 13:47:17h | 7.47 | M23 | 132nd M · 43rd M23 | |
| 146 | 13:50:52h | 7.44 | M50 | 133rd M · 12th M50 | |
| 146 | 13:50:52h | 7.44 | M50 | 133rd M · 12th M50 | |
| 148 | 13:55:20h | 7.40 | M23 | 135th M · 44th M23 | |
| 148 | Wrecsam Tri | 13:55:20h | 7.40 | M23 | 135th M · 44th M23 |
| 150 | IFK Sala | 13:56:04h | 7.39 | W40 | 14th F · 1st W40 |
- 101Bjäre Runners90th M · 18th M35Time12:48:03hPace8.05Cat.M35
- 102SKI IL Friidrett91st M · 19th M35Time12:48:34hPace8.04Cat.M35
- 103Hurt92nd M · 14th M45Time12:49:36hPace8.03Cat.M45
- 10493rd M · 20th M35Time12:50:49hPace8.02Cat.M35
- 105Lonesome Ultrarunners94th M · 10th M50Time12:51:01hPace8.02Cat.M50
- 106Run Happy Run Club95th M · 30th M23Time12:52:06hPace8.00Cat.M23
- 107Yogging Club96th M · 21st M35Time12:53:16hPace7.99Cat.M35
- 108Team Fischer97th M · 22nd M35Time12:54:23hPace7.98Cat.M35
- 109Team Kroppslabbet98th M · 11th M50Time12:56:10hPace7.96Cat.M50
- 110Mexico 8699th M · 23rd M35Time12:57:05hPace7.95Cat.M35
- 111100th M · 31st M23Time13:03:59hPace7.88Cat.M23
- 112101st M · 24th M35Time13:04:14hPace7.88Cat.M35
- 113Atlas Running Club102nd M · 32nd M23Time13:04:20hPace7.88Cat.M23
- 114Origami Runners103rd M · 25th M35Time13:05:27hPace7.87Cat.M35
- 115104th M · 17th M40Time13:06:56hPace7.85Cat.M40
- 115104th M · 17th M40Time13:06:56hPace7.85Cat.M40
- 117106th M · 15th M45Time13:07:27hPace7.85Cat.M45
- 118107th M · 19th M40Time13:08:00hPace7.84Cat.M40
- 119108th M · 33rd M23Time13:09:02hPace7.83Cat.M23
- 120109th M · 34th M23Time13:10:33hPace7.82Cat.M23
- 12112th F · 5th W23Time13:11:59hPace7.80Cat.W23
- 122Tidaholm13th F · 5th W35Time13:12:33hPace7.80Cat.W35
- 123Trailrunning Sweden Li...110th M · 16th M45Time13:13:05hPace7.79Cat.M45
- 124The Ultra Tribe111th M · 20th M40Time13:17:19hPace7.75Cat.M40
- 125112th M · 26th M35Time13:18:26hPace7.74Cat.M35
- 126113th M · 35th M23Time13:19:48hPace7.73Cat.M23
- 127114th M · 36th M23Time13:21:44hPace7.71Cat.M23
- 128SKI IL Friidrett115th M · 21st M40Time13:23:40hPace7.69Cat.M40
- 129LA Familia LON116th M · 17th M45Time13:25:59hPace7.67Cat.M45
- 130117th M · 27th M35Time13:27:15hPace7.66Cat.M35
- 131118th M · 37th M23Time13:28:43hPace7.64Cat.M23
- 132119th M · 38th M23Time13:29:31hPace7.63Cat.M23
- 133120th M · 18th M45Time13:29:57hPace7.63Cat.M45
- 134LE Run121st M · 28th M35Time13:32:34hPace7.61Cat.M35
- 135122nd M · 22nd M40Time13:34:39hPace7.59Cat.M40
- 136Levallois SC123rd M · 29th M35Time13:35:10hPace7.58Cat.M35
- 136123rd M · 29th M35Time13:35:10hPace7.58Cat.M35
- 138125th M · 19th M45Time13:35:54hPace7.57Cat.M45
- 139126th M · 39th M23Time13:40:49hPace7.53Cat.M23
- 140127th M · 31st M35Time13:41:55hPace7.52Cat.M35
- 141128th M · 40th M23Time13:42:04hPace7.52Cat.M23
- 142129th M · 41st M23Time13:45:44hPace7.48Cat.M23
- 143130th M · 42nd M23Time13:46:37hPace7.48Cat.M23
- 144131st M · 32nd M35Time13:47:07hPace7.47Cat.M35
- 145132nd M · 43rd M23Time13:47:17hPace7.47Cat.M23
- 146133rd M · 12th M50Time13:50:52hPace7.44Cat.M50
- 146133rd M · 12th M50Time13:50:52hPace7.44Cat.M50
- 148135th M · 44th M23Time13:55:20hPace7.40Cat.M23
- 148Wrecsam Tri135th M · 44th M23Time13:55:20hPace7.40Cat.M23
- 150IFK Sala14th F · 1st W40Time13:56:04hPace7.39Cat.W40
Showing ranks 101–150 of 420